createdAt,value
2023-01-03T00:07:44.934Z,11.00
2023-01-03T00:21:44.946Z,10.80
2023-01-03T00:35:44.978Z,11.10
2023-01-03T00:49:44.993Z,11.80
2023-01-03T01:03:45.034Z,10.70
2023-01-03T01:17:44.954Z,11.30
2023-01-03T01:31:45.016Z,11.20
2023-01-03T01:45:45.013Z,11.20
2023-01-03T01:59:44.986Z,11.20
2023-01-03T02:13:44.999Z,11.20
2023-01-03T02:27:45.025Z,10.70
2023-01-03T02:41:45.042Z,10.20
2023-01-03T02:55:45.156Z,10.00
2023-01-03T03:09:45.157Z,10.50
2023-01-03T03:23:45.185Z,10.10
2023-01-03T03:37:45.173Z,9.60
2023-01-03T03:51:45.181Z,9.70
2023-01-03T04:05:45.154Z,9.40
2023-01-03T04:19:45.157Z,9.10
2023-01-03T04:33:45.170Z,8.70
2023-01-03T04:47:45.174Z,8.80
2023-01-03T05:01:45.255Z,8.60
2023-01-03T05:15:45.172Z,8.10
2023-01-03T05:29:45.240Z,8.20
2023-01-03T05:43:45.256Z,7.90
2023-01-03T05:57:45.244Z,7.90
2023-01-03T06:11:45.249Z,7.70
2023-01-03T06:25:45.223Z,7.50
2023-01-03T06:40:45.862Z,7.10
2023-01-03T06:55:45.240Z,7.40
2023-01-03T07:10:45.271Z,7.20
2023-01-03T07:25:45.242Z,6.90
2023-01-03T07:40:45.265Z,7.00
2023-01-03T07:55:45.293Z,7.10
2023-01-03T08:10:45.296Z,7.20
2023-01-03T08:25:45.274Z,6.80
2023-01-03T08:40:45.296Z,6.85
2023-01-03T08:55:45.291Z,7.00
2023-01-03T09:10:47.445Z,6.70
2023-01-03T09:25:45.366Z,6.60
2023-01-03T09:40:45.410Z,6.70
2023-01-03T09:55:45.408Z,6.20
2023-01-03T10:10:45.418Z,6.10
2023-01-03T10:25:45.437Z,6.10
2023-01-03T10:40:45.449Z,6.20
2023-01-03T10:55:45.446Z,5.80
2023-01-03T11:10:45.451Z,6.30
2023-01-03T11:25:45.431Z,6.10
2023-01-03T11:40:45.446Z,6.10
2023-01-03T11:55:45.460Z,5.30
2023-01-03T12:10:45.488Z,5.35
2023-01-03T12:25:45.496Z,5.30
2023-01-03T12:40:45.487Z,5.80
2023-01-03T12:55:45.507Z,5.80
2023-01-03T13:10:45.494Z,6.10
2023-01-03T13:25:45.493Z,6.10
2023-01-03T13:41:15.812Z,5.90
2023-01-03T13:55:49.164Z,5.40
2023-01-03T14:10:45.515Z,5.70
2023-01-03T14:25:45.550Z,5.70
2023-01-03T14:40:45.504Z,5.80
2023-01-03T14:55:45.541Z,5.60
2023-01-03T15:10:45.608Z,5.70
2023-01-03T15:25:45.533Z,5.70
2023-01-03T15:41:45.556Z,5.70
2023-01-03T15:56:45.584Z,6.00
2023-01-03T16:11:45.560Z,5.90
2023-01-03T16:26:45.565Z,5.80
2023-01-03T16:40:45.700Z,5.90
2023-01-03T16:54:45.602Z,6.40
2023-01-03T17:08:45.650Z,6.50
2023-01-03T17:22:45.663Z,6.60
2023-01-03T17:36:45.691Z,6.95
2023-01-03T17:50:45.736Z,6.90
2023-01-03T18:05:13.974Z,6.90
2023-01-03T18:18:45.740Z,7.40
2023-01-03T18:32:45.774Z,7.90
2023-01-03T18:46:45.806Z,7.70
2023-01-03T19:00:45.822Z,7.60
2023-01-03T19:14:46.791Z,7.80
2023-01-03T19:28:45.750Z,8.00
2023-01-03T19:42:45.779Z,7.90
2023-01-03T19:56:45.803Z,8.20
2023-01-03T20:10:45.831Z,8.00
2023-01-03T20:24:45.817Z,8.00
2023-01-03T20:38:45.854Z,8.00
2023-01-03T20:52:45.849Z,8.00
2023-01-03T21:06:45.818Z,8.40
2023-01-03T21:20:45.907Z,8.10
2023-01-03T21:34:45.917Z,8.70
2023-01-03T21:48:46.004Z,8.50
2023-01-03T22:02:46.182Z,8.50
2023-01-03T22:16:46.030Z,8.50
2023-01-03T22:30:45.992Z,8.80
2023-01-03T22:44:46.013Z,8.70
2023-01-03T22:58:46.030Z,8.60
2023-01-03T23:12:46.041Z,8.70
2023-01-03T23:26:46.043Z,8.45
2023-01-03T23:40:46.069Z,8.30
2023-01-03T23:54:46.071Z,8.10
